sensor_id;sensor_type;location;lat;lon;timestamp;temperature;humidity
75363;DHT22;64122;51.988;5.892;2023-09-18T00:00:17;21.14;76.79
75363;DHT22;64122;51.988;5.892;2023-09-18T00:02:47;21.11;76.81
75363;DHT22;64122;51.988;5.892;2023-09-18T00:05:19;21.10;76.79
75363;DHT22;64122;51.988;5.892;2023-09-18T00:07:48;20.99;77.62
75363;DHT22;64122;51.988;5.892;2023-09-18T00:10:17;21.07;76.98
75363;DHT22;64122;51.988;5.892;2023-09-18T00:12:47;21.08;76.86
75363;DHT22;64122;51.988;5.892;2023-09-18T00:15:16;21.08;76.88
75363;DHT22;64122;51.988;5.892;2023-09-18T00:17:45;21.07;76.87
75363;DHT22;64122;51.988;5.892;2023-09-18T00:20:14;21.06;76.87
75363;DHT22;64122;51.988;5.892;2023-09-18T00:22:47;21.05;76.87
75363;DHT22;64122;51.988;5.892;2023-09-18T00:25:16;21.07;76.86
75363;DHT22;64122;51.988;5.892;2023-09-18T00:27:45;21.07;76.82
75363;DHT22;64122;51.988;5.892;2023-09-18T00:30:15;21.06;76.82
75363;DHT22;64122;51.988;5.892;2023-09-18T00:32:44;21.07;76.81
75363;DHT22;64122;51.988;5.892;2023-09-18T00:35:13;21.06;76.82
75363;DHT22;64122;51.988;5.892;2023-09-18T00:37:42;21.07;76.77
75363;DHT22;64122;51.988;5.892;2023-09-18T00:40:15;21.06;76.76
75363;DHT22;64122;51.988;5.892;2023-09-18T00:42:44;21.07;76.83
75363;DHT22;64122;51.988;5.892;2023-09-18T00:45:14;21.07;76.78
75363;DHT22;64122;51.988;5.892;2023-09-18T00:47:43;21.08;76.74
75363;DHT22;64122;51.988;5.892;2023-09-18T00:50:13;21.05;76.79
75363;DHT22;64122;51.988;5.892;2023-09-18T00:52:43;21.03;76.82
75363;DHT22;64122;51.988;5.892;2023-09-18T00:55:15;20.99;76.84
75363;DHT22;64122;51.988;5.892;2023-09-18T00:57:46;21.00;76.90
75363;DHT22;64122;51.988;5.892;2023-09-18T01:00:15;20.99;76.90
75363;DHT22;64122;51.988;5.892;2023-09-18T01:02:45;20.98;76.95
75363;DHT22;64122;51.988;5.892;2023-09-18T01:05:14;20.95;77.05
75363;DHT22;64122;51.988;5.892;2023-09-18T01:07:45;20.94;77.05
75363;DHT22;64122;51.988;5.892;2023-09-18T01:10:18;20.92;77.05
75363;DHT22;64122;51.988;5.892;2023-09-18T01:12:53;20.93;77.05
75363;DHT22;64122;51.988;5.892;2023-09-18T01:15:35;20.93;77.06
75363;DHT22;64122;51.988;5.892;2023-09-18T01:18:09;20.91;77.04
75363;DHT22;64122;51.988;5.892;2023-09-18T01:20:39;20.90;77.15
75363;DHT22;64122;51.988;5.892;2023-09-18T01:23:11;20.86;77.19
75363;DHT22;64122;51.988;5.892;2023-09-18T01:25:41;20.88;77.21
75363;DHT22;64122;51.988;5.892;2023-09-18T01:28:10;20.87;77.21
75363;DHT22;64122;51.988;5.892;2023-09-18T01:30:40;20.87;77.22
75363;DHT22;64122;51.988;5.892;2023-09-18T01:33:10;20.88;77.16
75363;DHT22;64122;51.988;5.892;2023-09-18T01:35:40;20.89;77.15
75363;DHT22;64122;51.988;5.892;2023-09-18T01:38:11;20.89;77.16
75363;DHT22;64122;51.988;5.892;2023-09-18T01:40:41;20.88;77.13
75363;DHT22;64122;51.988;5.892;2023-09-18T01:43:11;20.89;77.17
75363;DHT22;64122;51.988;5.892;2023-09-18T01:45:40;20.88;77.13
75363;DHT22;64122;51.988;5.892;2023-09-18T01:48:10;20.88;77.19
75363;DHT22;64122;51.988;5.892;2023-09-18T01:50:39;20.89;77.17
75363;DHT22;64122;51.988;5.892;2023-09-18T01:53:11;20.87;77.16
75363;DHT22;64122;51.988;5.892;2023-09-18T01:55:40;20.87;77.18
75363;DHT22;64122;51.988;5.892;2023-09-18T01:58:10;20.86;77.20
75363;DHT22;64122;51.988;5.892;2023-09-18T02:00:40;20.85;77.24
75363;DHT22;64122;51.988;5.892;2023-09-18T02:03:09;20.86;77.23
75363;DHT22;64122;51.988;5.892;2023-09-18T02:05:40;20.85;77.24
75363;DHT22;64122;51.988;5.892;2023-09-18T02:08:13;20.85;77.18
75363;DHT22;64122;51.988;5.892;2023-09-18T02:10:42;20.86;77.22
75363;DHT22;64122;51.988;5.892;2023-09-18T02:13:11;20.88;77.20
75363;DHT22;64122;51.988;5.892;2023-09-18T02:15:40;20.89;77.18
75363;DHT22;64122;51.988;5.892;2023-09-18T02:18:09;20.91;77.11
75363;DHT22;64122;51.988;5.892;2023-09-18T02:20:40;20.94;77.01
75363;DHT22;64122;51.988;5.892;2023-09-18T02:23:13;20.96;76.95
75363;DHT22;64122;51.988;5.892;2023-09-18T02:25:42;20.99;76.92
75363;DHT22;64122;51.988;5.892;2023-09-18T02:28:13;20.99;76.90
75363;DHT22;64122;51.988;5.892;2023-09-18T02:30:42;21.01;76.84
75363;DHT22;64122;51.988;5.892;2023-09-18T02:33:13;21.04;76.71
75363;DHT22;64122;51.988;5.892;2023-09-18T02:35:42;21.06;76.70
75363;DHT22;64122;51.988;5.892;2023-09-18T02:38:14;21.08;76.57
75363;DHT22;64122;51.988;5.892;2023-09-18T02:40:43;21.13;76.49
75363;DHT22;64122;51.988;5.892;2023-09-18T02:43:12;21.16;76.39
75363;DHT22;64122;51.988;5.892;2023-09-18T02:45:41;21.19;76.24
75363;DHT22;64122;51.988;5.892;2023-09-18T02:48:12;21.22;76.15
75363;DHT22;64122;51.988;5.892;2023-09-18T02:50:41;21.25;76.05
75363;DHT22;64122;51.988;5.892;2023-09-18T02:53:17;21.27;76.05
75363;DHT22;64122;51.988;5.892;2023-09-18T02:55:49;21.27;76.00
75363;DHT22;64122;51.988;5.892;2023-09-18T02:58:19;21.17;76.95
75363;DHT22;64122;51.988;5.892;2023-09-18T03:00:50;21.28;76.08
75363;DHT22;64122;51.988;5.892;2023-09-18T03:03:20;21.27;75.99
75363;DHT22;64122;51.988;5.892;2023-09-18T03:05:49;21.27;75.96
75363;DHT22;64122;51.988;5.892;2023-09-18T03:08:21;21.22;75.99
75363;DHT22;64122;51.988;5.892;2023-09-18T03:10:50;21.25;76.00
75363;DHT22;64122;51.988;5.892;2023-09-18T03:13:19;21.25;75.89
75363;DHT22;64122;51.988;5.892;2023-09-18T03:15:48;21.27;75.89
75363;DHT22;64122;51.988;5.892;2023-09-18T03:18:17;21.23;75.92
75363;DHT22;64122;51.988;5.892;2023-09-18T03:20:47;21.22;75.94
75363;DHT22;64122;51.988;5.892;2023-09-18T03:23:16;21.21;75.99
75363;DHT22;64122;51.988;5.892;2023-09-18T03:25:48;21.20;76.01
75363;DHT22;64122;51.988;5.892;2023-09-18T03:28:18;21.23;75.99
75363;DHT22;64122;51.988;5.892;2023-09-18T03:30:49;21.25;75.90
75363;DHT22;64122;51.988;5.892;2023-09-18T03:33:22;21.29;75.91
75363;DHT22;64122;51.988;5.892;2023-09-18T03:35:52;21.35;75.44
75363;DHT22;64122;51.988;5.892;2023-09-18T03:38:27;21.40;75.44
75363;DHT22;64122;51.988;5.892;2023-09-18T03:41:01;21.42;75.35
75363;DHT22;64122;51.988;5.892;2023-09-18T03:43:31;21.49;75.29
75363;DHT22;64122;51.988;5.892;2023-09-18T03:46:04;21.50;75.25
75363;DHT22;64122;51.988;5.892;2023-09-18T03:48:39;21.52;75.24
75363;DHT22;64122;51.988;5.892;2023-09-18T03:51:08;21.55;75.21
75363;DHT22;64122;51.988;5.892;2023-09-18T03:53:41;21.58;75.09
75363;DHT22;64122;51.988;5.892;2023-09-18T03:56:13;21.60;75.17
75363;DHT22;64122;51.988;5.892;2023-09-18T03:58:43;21.61;75.26
75363;DHT22;64122;51.988;5.892;2023-09-18T04:01:15;21.63;75.25
75363;DHT22;64122;51.988;5.892;2023-09-18T04:03:45;21.63;75.12
75363;DHT22;64122;51.988;5.892;2023-09-18T04:06:15;21.59;75.17
75363;DHT22;64122;51.988;5.892;2023-09-18T04:08:46;21.62;75.16
75363;DHT22;64122;51.988;5.892;2023-09-18T04:11:18;21.59;75.12
75363;DHT22;64122;51.988;5.892;2023-09-18T04:13:52;21.59;75.12
75363;DHT22;64122;51.988;5.892;2023-09-18T04:16:21;21.60;75.12
75363;DHT22;64122;51.988;5.892;2023-09-18T04:18:50;21.62;75.12
75363;DHT22;64122;51.988;5.892;2023-09-18T04:21:19;21.61;75.09
75363;DHT22;64122;51.988;5.892;2023-09-18T04:23:50;21.64;75.13
75363;DHT22;64122;51.988;5.892;2023-09-18T04:26:26;21.62;75.12
75363;DHT22;64122;51.988;5.892;2023-09-18T04:28:57;21.62;75.12
75363;DHT22;64122;51.988;5.892;2023-09-18T04:31:27;21.62;75.15
75363;DHT22;64122;51.988;5.892;2023-09-18T04:33:57;21.62;75.16
75363;DHT22;64122;51.988;5.892;2023-09-18T04:36:26;21.61;75.12
75363;DHT22;64122;51.988;5.892;2023-09-18T04:38:55;21.60;75.05
75363;DHT22;64122;51.988;5.892;2023-09-18T04:41:27;21.59;75.06
75363;DHT22;64122;51.988;5.892;2023-09-18T04:43:56;21.61;75.12
75363;DHT22;64122;51.988;5.892;2023-09-18T04:46:27;21.60;75.08
75363;DHT22;64122;51.988;5.892;2023-09-18T04:48:57;21.62;75.11
75363;DHT22;64122;51.988;5.892;2023-09-18T04:51:26;21.61;75.12
75363;DHT22;64122;51.988;5.892;2023-09-18T04:53:55;21.58;75.18
75363;DHT22;64122;51.988;5.892;2023-09-18T04:56:30;21.53;75.35
75363;DHT22;64122;51.988;5.892;2023-09-18T04:58:59;21.51;75.41
75363;DHT22;64122;51.988;5.892;2023-09-18T05:01:29;21.52;75.37
75363;DHT22;64122;51.988;5.892;2023-09-18T05:04:00;21.54;75.35
75363;DHT22;64122;51.988;5.892;2023-09-18T05:06:29;21.57;75.37
75363;DHT22;64122;51.988;5.892;2023-09-18T05:08:59;21.57;75.34
75363;DHT22;64122;51.988;5.892;2023-09-18T05:11:31;21.58;75.34
75363;DHT22;64122;51.988;5.892;2023-09-18T05:14:00;21.59;75.39
75363;DHT22;64122;51.988;5.892;2023-09-18T05:16:30;21.62;75.48
75363;DHT22;64122;51.988;5.892;2023-09-18T05:18:59;21.63;75.48
75363;DHT22;64122;51.988;5.892;2023-09-18T05:21:28;21.64;75.51
75363;DHT22;64122;51.988;5.892;2023-09-18T05:23:57;21.62;75.63
75363;DHT22;64122;51.988;5.892;2023-09-18T05:26:27;21.64;75.68
75363;DHT22;64122;51.988;5.892;2023-09-18T05:28:59;21.62;75.76
75363;DHT22;64122;51.988;5.892;2023-09-18T05:31:29;21.64;75.81
75363;DHT22;64122;51.988;5.892;2023-09-18T05:33:58;21.64;75.92
75363;DHT22;64122;51.988;5.892;2023-09-18T05:36:28;21.63;76.02
75363;DHT22;64122;51.988;5.892;2023-09-18T05:38:57;21.64;76.09
75363;DHT22;64122;51.988;5.892;2023-09-18T05:41:26;21.66;76.12
75363;DHT22;64122;51.988;5.892;2023-09-18T05:43:58;21.68;76.13
75363;DHT22;64122;51.988;5.892;2023-09-18T05:46:25;21.67;76.24
75363;DHT22;64122;51.988;5.892;2023-09-18T05:48:54;21.69;76.28
75363;DHT22;64122;51.988;5.892;2023-09-18T05:51:24;21.67;76.40
75363;DHT22;64122;51.988;5.892;2023-09-18T05:53:53;21.67;76.44
75363;DHT22;64122;51.988;5.892;2023-09-18T05:56:22;21.68;76.49
75363;DHT22;64122;51.988;5.892;2023-09-18T05:58:52;21.68;76.54
75363;DHT22;64122;51.988;5.892;2023-09-18T06:01:24;21.65;76.61
75363;DHT22;64122;51.988;5.892;2023-09-18T06:03:53;21.66;76.76
75363;DHT22;64122;51.988;5.892;2023-09-18T06:06:23;21.66;76.78
75363;DHT22;64122;51.988;5.892;2023-09-18T06:08:52;21.65;76.89
75363;DHT22;64122;51.988;5.892;2023-09-18T06:11:22;21.65;76.94
75363;DHT22;64122;51.988;5.892;2023-09-18T06:13:51;21.66;77.00
75363;DHT22;64122;51.988;5.892;2023-09-18T06:16:20;21.69;76.99
75363;DHT22;64122;51.988;5.892;2023-09-18T06:18:52;21.67;76.90
75363;DHT22;64122;51.988;5.892;2023-09-18T06:21:22;21.70;76.90
75363;DHT22;64122;51.988;5.892;2023-09-18T06:23:51;21.73;76.89
75363;DHT22;64122;51.988;5.892;2023-09-18T06:26:20;21.74;76.91
75363;DHT22;64122;51.988;5.892;2023-09-18T06:28:50;21.82;76.63
75363;DHT22;64122;51.988;5.892;2023-09-18T06:31:21;21.85;76.38
75363;DHT22;64122;51.988;5.892;2023-09-18T06:33:53;21.84;76.30
75363;DHT22;64122;51.988;5.892;2023-09-18T06:36:22;21.87;76.32
75363;DHT22;64122;51.988;5.892;2023-09-18T06:38:51;21.89;76.22
75363;DHT22;64122;51.988;5.892;2023-09-18T06:41:20;21.91;76.02
75363;DHT22;64122;51.988;5.892;2023-09-18T06:43:49;21.89;76.21
75363;DHT22;64122;51.988;5.892;2023-09-18T06:46:18;21.91;76.05
75363;DHT22;64122;51.988;5.892;2023-09-18T06:48:47;21.91;76.06
75363;DHT22;64122;51.988;5.892;2023-09-18T06:51:19;21.92;76.02
75363;DHT22;64122;51.988;5.892;2023-09-18T06:53:49;21.92;76.03
75363;DHT22;64122;51.988;5.892;2023-09-18T06:56:18;21.93;75.89
75363;DHT22;64122;51.988;5.892;2023-09-18T06:58:47;21.94;75.88
75363;DHT22;64122;51.988;5.892;2023-09-18T07:01:17;21.93;75.64
75363;DHT22;64122;51.988;5.892;2023-09-18T07:03:47;21.96;75.52
75363;DHT22;64122;51.988;5.892;2023-09-18T07:06:19;21.98;75.09
75363;DHT22;64122;51.988;5.892;2023-09-18T07:08:48;21.99;74.64
75363;DHT22;64122;51.988;5.892;2023-09-18T07:11:19;21.98;74.47
75363;DHT22;64122;51.988;5.892;2023-09-18T07:13:48;22.01;74.23
75363;DHT22;64122;51.988;5.892;2023-09-18T07:16:17;22.01;73.95
75363;DHT22;64122;51.988;5.892;2023-09-18T07:18:46;22.03;73.85
75363;DHT22;64122;51.988;5.892;2023-09-18T07:21:15;22.03;73.61
75363;DHT22;64122;51.988;5.892;2023-09-18T07:23:47;22.06;73.48
75363;DHT22;64122;51.988;5.892;2023-09-18T07:26:17;22.06;73.20
75363;DHT22;64122;51.988;5.892;2023-09-18T07:28:46;22.11;72.96
75363;DHT22;64122;51.988;5.892;2023-09-18T07:31:16;22.13;72.67
75363;DHT22;64122;51.988;5.892;2023-09-18T07:33:45;22.14;72.58
75363;DHT22;64122;51.988;5.892;2023-09-18T07:36:14;22.18;72.35
75363;DHT22;64122;51.988;5.892;2023-09-18T07:38:47;22.17;72.38
75363;DHT22;64122;51.988;5.892;2023-09-18T07:41:17;22.19;72.20
75363;DHT22;64122;51.988;5.892;2023-09-18T07:43:48;22.22;72.04
75363;DHT22;64122;51.988;5.892;2023-09-18T07:46:18;22.21;71.87
75363;DHT22;64122;51.988;5.892;2023-09-18T07:48:47;22.22;71.80
75363;DHT22;64122;51.988;5.892;2023-09-18T07:51:16;22.25;71.57
75363;DHT22;64122;51.988;5.892;2023-09-18T07:53:48;22.25;71.45
75363;DHT22;64122;51.988;5.892;2023-09-18T07:56:17;22.25;71.13
75363;DHT22;64122;51.988;5.892;2023-09-18T07:58:47;22.21;71.10
75363;DHT22;64122;51.988;5.892;2023-09-18T08:01:16;22.20;71.11
75363;DHT22;64122;51.988;5.892;2023-09-18T08:03:48;22.19;70.93
75363;DHT22;64122;51.988;5.892;2023-09-18T08:06:17;22.19;70.96
75363;DHT22;64122;51.988;5.892;2023-09-18T08:08:50;22.22;70.97
75363;DHT22;64122;51.988;5.892;2023-09-18T08:11:19;22.31;70.81
75363;DHT22;64122;51.988;5.892;2023-09-18T08:13:49;22.36;70.54
75363;DHT22;64122;51.988;5.892;2023-09-18T08:16:19;22.34;70.32
75363;DHT22;64122;51.988;5.892;2023-09-18T08:18:49;22.33;70.29
75363;DHT22;64122;51.988;5.892;2023-09-18T08:21:19;22.36;70.27
75363;DHT22;64122;51.988;5.892;2023-09-18T08:23:51;22.39;70.00
75363;DHT22;64122;51.988;5.892;2023-09-18T08:26:21;22.36;71.22
75363;DHT22;64122;51.988;5.892;2023-09-18T08:28:51;22.43;69.99
75363;DHT22;64122;51.988;5.892;2023-09-18T08:31:20;22.53;69.72
75363;DHT22;64122;51.988;5.892;2023-09-18T08:33:50;22.56;69.72
75363;DHT22;64122;51.988;5.892;2023-09-18T08:36:19;22.63;69.46
75363;DHT22;64122;51.988;5.892;2023-09-18T08:38:51;22.63;69.35
75363;DHT22;64122;51.988;5.892;2023-09-18T08:41:23;22.70;69.04
75363;DHT22;64122;51.988;5.892;2023-09-18T08:43:58;23.01;68.22
75363;DHT22;64122;51.988;5.892;2023-09-18T08:46:30;24.71;63.07
75363;DHT22;64122;51.988;5.892;2023-09-18T08:49:00;25.57;60.73
75363;DHT22;64122;51.988;5.892;2023-09-18T08:51:29;25.34;60.72
75363;DHT22;64122;51.988;5.892;2023-09-18T08:54:02;24.75;62.08
75363;DHT22;64122;51.988;5.892;2023-09-18T08:56:33;24.25;63.66
75363;DHT22;64122;51.988;5.892;2023-09-18T08:59:02;24.00;64.23
75363;DHT22;64122;51.988;5.892;2023-09-18T09:01:32;23.85;64.66
75363;DHT22;64122;51.988;5.892;2023-09-18T09:04:01;23.76;64.81
75363;DHT22;64122;51.988;5.892;2023-09-18T09:06:30;23.75;64.69
75363;DHT22;64122;51.988;5.892;2023-09-18T09:09:03;23.75;64.64
75363;DHT22;64122;51.988;5.892;2023-09-18T09:11:34;23.70;64.49
75363;DHT22;64122;51.988;5.892;2023-09-18T09:14:10;23.54;64.96
75363;DHT22;64122;51.988;5.892;2023-09-18T09:16:46;23.42;65.11
75363;DHT22;64122;51.988;5.892;2023-09-18T09:19:16;23.56;64.83
75363;DHT22;64122;51.988;5.892;2023-09-18T09:21:46;23.99;63.70
75363;DHT22;64122;51.988;5.892;2023-09-18T09:24:36;24.09;63.72
75363;DHT22;64122;51.988;5.892;2023-09-18T09:27:05;24.48;62.07
75363;DHT22;64122;51.988;5.892;2023-09-18T09:29:35;24.28;62.66
75363;DHT22;64122;51.988;5.892;2023-09-18T09:32:17;24.31;63.16
75363;DHT22;64122;51.988;5.892;2023-09-18T09:34:47;25.22;60.51
75363;DHT22;64122;51.988;5.892;2023-09-18T09:37:17;26.38;57.44
75363;DHT22;64122;51.988;5.892;2023-09-18T09:39:49;27.26;54.75
75363;DHT22;64122;51.988;5.892;2023-09-18T09:42:20;27.11;54.38
75363;DHT22;64122;51.988;5.892;2023-09-18T09:45:02;27.20;55.12
75363;DHT22;64122;51.988;5.892;2023-09-18T09:47:35;27.57;53.82
75363;DHT22;64122;51.988;5.892;2023-09-18T09:50:08;27.78;53.68
75363;DHT22;64122;51.988;5.892;2023-09-18T09:52:43;27.93;52.80
75363;DHT22;64122;51.988;5.892;2023-09-18T09:55:25;28.01;53.07
75363;DHT22;64122;51.988;5.892;2023-09-18T09:57:56;27.83;53.31
75363;DHT22;64122;51.988;5.892;2023-09-18T10:00:29;27.54;52.81
75363;DHT22;64122;51.988;5.892;2023-09-18T10:03:04;27.15;53.58
75363;DHT22;64122;51.988;5.892;2023-09-18T10:05:35;26.89;54.56
75363;DHT22;64122;51.988;5.892;2023-09-18T10:08:07;26.69;54.76
75363;DHT22;64122;51.988;5.892;2023-09-18T10:10:46;26.46;55.18
75363;DHT22;64122;51.988;5.892;2023-09-18T10:13:18;26.30;55.00
75363;DHT22;64122;51.988;5.892;2023-09-18T10:15:49;26.25;54.94
75363;DHT22;64122;51.988;5.892;2023-09-18T10:18:24;26.19;55.43
75363;DHT22;64122;51.988;5.892;2023-09-18T10:20:59;25.90;55.87
75363;DHT22;64122;51.988;5.892;2023-09-18T10:23:42;25.68;56.60
75363;DHT22;64122;51.988;5.892;2023-09-18T10:26:22;25.36;57.48
75363;DHT22;64122;51.988;5.892;2023-09-18T10:28:55;25.20;58.06
75363;DHT22;64122;51.988;5.892;2023-09-18T10:31:29;25.02;58.47
75363;DHT22;64122;51.988;5.892;2023-09-18T10:33:58;24.83;58.52
75363;DHT22;64122;51.988;5.892;2023-09-18T10:36:29;24.82;58.90
75363;DHT22;64122;51.988;5.892;2023-09-18T10:38:59;24.93;58.40
75363;DHT22;64122;51.988;5.892;2023-09-18T10:41:36;25.15;57.75
75363;DHT22;64122;51.988;5.892;2023-09-18T10:44:06;25.10;57.70
75363;DHT22;64122;51.988;5.892;2023-09-18T10:46:36;25.00;57.59
75363;DHT22;64122;51.988;5.892;2023-09-18T10:49:06;24.91;57.53
75363;DHT22;64122;51.988;5.892;2023-09-18T10:51:37;24.75;57.66
75363;DHT22;64122;51.988;5.892;2023-09-18T10:54:09;24.68;58.17
75363;DHT22;64122;51.988;5.892;2023-09-18T10:56:41;24.64;58.47
75363;DHT22;64122;51.988;5.892;2023-09-18T10:59:10;24.58;58.51
75363;DHT22;64122;51.988;5.892;2023-09-18T11:01:39;24.50;58.74
75363;DHT22;64122;51.988;5.892;2023-09-18T11:04:09;24.45;59.05
75363;DHT22;64122;51.988;5.892;2023-09-18T11:07:02;24.35;59.39
75363;DHT22;64122;51.988;5.892;2023-09-18T11:09:40;24.32;58.86
75363;DHT22;64122;51.988;5.892;2023-09-18T11:12:15;24.33;58.70
75363;DHT22;64122;51.988;5.892;2023-09-18T11:14:46;24.33;58.98
75363;DHT22;64122;51.988;5.892;2023-09-18T11:17:32;24.30;59.02
75363;DHT22;64122;51.988;5.892;2023-09-18T11:20:07;24.33;58.96
75363;DHT22;64122;51.988;5.892;2023-09-18T11:22:39;24.53;58.38
75363;DHT22;64122;51.988;5.892;2023-09-18T11:25:29;24.53;59.03
75363;DHT22;64122;51.988;5.892;2023-09-18T11:28:03;24.38;58.76
75363;DHT22;64122;51.988;5.892;2023-09-18T11:30:35;24.28;58.83
75363;DHT22;64122;51.988;5.892;2023-09-18T11:33:07;24.16;58.98
75363;DHT22;64122;51.988;5.892;2023-09-18T11:35:37;24.03;59.27
75363;DHT22;64122;51.988;5.892;2023-09-18T11:38:08;23.89;59.70
75363;DHT22;64122;51.988;5.892;2023-09-18T11:40:39;23.82;60.06
75363;DHT22;64122;51.988;5.892;2023-09-18T11:43:27;23.71;60.54
75363;DHT22;64122;51.988;5.892;2023-09-18T11:45:58;23.68;60.64
75363;DHT22;64122;51.988;5.892;2023-09-18T11:48:30;23.64;60.97
75363;DHT22;64122;51.988;5.892;2023-09-18T11:51:03;23.60;61.03
75363;DHT22;64122;51.988;5.892;2023-09-18T11:53:35;23.65;61.00
75363;DHT22;64122;51.988;5.892;2023-09-18T11:56:10;24.05;60.34
75363;DHT22;64122;51.988;5.892;2023-09-18T11:58:51;24.46;59.64
75363;DHT22;64122;51.988;5.892;2023-09-18T12:01:21;24.72;58.96
75363;DHT22;64122;51.988;5.892;2023-09-18T12:03:55;24.91;58.64
75363;DHT22;64122;51.988;5.892;2023-09-18T12:06:29;25.09;58.19
75363;DHT22;64122;51.988;5.892;2023-09-18T12:08:58;25.19;57.70
75363;DHT22;64122;51.988;5.892;2023-09-18T12:11:27;25.06;57.65
75363;DHT22;64122;51.988;5.892;2023-09-18T12:13:59;25.10;57.48
75363;DHT22;64122;51.988;5.892;2023-09-18T12:16:30;25.34;56.93
75363;DHT22;64122;51.988;5.892;2023-09-18T12:19:00;25.30;55.92
75363;DHT22;64122;51.988;5.892;2023-09-18T12:21:33;25.42;55.74
75363;DHT22;64122;51.988;5.892;2023-09-18T12:24:13;25.46;55.07
75363;DHT22;64122;51.988;5.892;2023-09-18T12:26:42;25.46;54.84
75363;DHT22;64122;51.988;5.892;2023-09-18T12:29:14;25.37;54.69
75363;DHT22;64122;51.988;5.892;2023-09-18T12:31:43;25.37;54.78
75363;DHT22;64122;51.988;5.892;2023-09-18T12:34:17;25.47;54.99
75363;DHT22;64122;51.988;5.892;2023-09-18T12:36:48;25.60;54.80
75363;DHT22;64122;51.988;5.892;2023-09-18T12:39:18;25.65;54.52
75363;DHT22;64122;51.988;5.892;2023-09-18T12:41:49;25.72;54.33
75363;DHT22;64122;51.988;5.892;2023-09-18T12:44:23;25.74;54.40
75363;DHT22;64122;51.988;5.892;2023-09-18T12:46:52;25.82;54.30
75363;DHT22;64122;51.988;5.892;2023-09-18T12:49:23;25.78;53.62
75363;DHT22;64122;51.988;5.892;2023-09-18T12:51:55;25.63;53.46
75363;DHT22;64122;51.988;5.892;2023-09-18T12:54:38;25.57;54.13
75363;DHT22;64122;51.988;5.892;2023-09-18T12:57:08;25.54;54.01
75363;DHT22;64122;51.988;5.892;2023-09-18T12:59:40;25.49;53.87
75363;DHT22;64122;51.988;5.892;2023-09-18T13:02:13;25.46;53.80
75363;DHT22;64122;51.988;5.892;2023-09-18T13:04:50;25.43;53.63
75363;DHT22;64122;51.988;5.892;2023-09-18T13:07:21;25.37;52.82
75363;DHT22;64122;51.988;5.892;2023-09-18T13:09:59;25.32;53.19
75363;DHT22;64122;51.988;5.892;2023-09-18T13:12:47;25.30;52.94
75363;DHT22;64122;51.988;5.892;2023-09-18T13:15:27;25.35;52.85
75363;DHT22;64122;51.988;5.892;2023-09-18T13:17:58;25.37;52.66
75363;DHT22;64122;51.988;5.892;2023-09-18T13:20:30;25.34;52.53
75363;DHT22;64122;51.988;5.892;2023-09-18T13:23:00;25.36;52.83
75363;DHT22;64122;51.988;5.892;2023-09-18T13:25:31;25.33;53.14
75363;DHT22;64122;51.988;5.892;2023-09-18T13:28:03;25.36;53.38
75363;DHT22;64122;51.988;5.892;2023-09-18T13:30:36;25.43;53.28
75363;DHT22;64122;51.988;5.892;2023-09-18T13:33:08;25.46;53.13
75363;DHT22;64122;51.988;5.892;2023-09-18T13:35:39;25.32;52.50
75363;DHT22;64122;51.988;5.892;2023-09-18T13:38:09;25.31;52.68
75363;DHT22;64122;51.988;5.892;2023-09-18T13:40:40;25.28;52.47
75363;DHT22;64122;51.988;5.892;2023-09-18T13:43:10;25.19;52.43
75363;DHT22;64122;51.988;5.892;2023-09-18T13:45:43;25.24;52.18
75363;DHT22;64122;51.988;5.892;2023-09-18T13:48:12;25.34;52.45
75363;DHT22;64122;51.988;5.892;2023-09-18T13:50:42;25.38;52.84
75363;DHT22;64122;51.988;5.892;2023-09-18T13:53:11;25.44;52.79
75363;DHT22;64122;51.988;5.892;2023-09-18T13:55:40;25.38;52.43
75363;DHT22;64122;51.988;5.892;2023-09-18T13:58:10;25.33;52.29
75363;DHT22;64122;51.988;5.892;2023-09-18T14:00:39;25.31;52.15
75363;DHT22;64122;51.988;5.892;2023-09-18T14:03:11;25.31;52.05
75363;DHT22;64122;51.988;5.892;2023-09-18T14:05:43;25.28;51.43
75363;DHT22;64122;51.988;5.892;2023-09-18T14:08:12;25.23;51.57
75363;DHT22;64122;51.988;5.892;2023-09-18T14:10:43;25.22;51.56
75363;DHT22;64122;51.988;5.892;2023-09-18T14:13:12;25.22;51.66
75363;DHT22;64122;51.988;5.892;2023-09-18T14:15:42;25.15;52.06
75363;DHT22;64122;51.988;5.892;2023-09-18T14:18:13;25.14;52.39
75363;DHT22;64122;51.988;5.892;2023-09-18T14:20:42;25.12;52.80
75363;DHT22;64122;51.988;5.892;2023-09-18T14:23:12;25.04;52.41
75363;DHT22;64122;51.988;5.892;2023-09-18T14:25:41;25.04;52.72
75363;DHT22;64122;51.988;5.892;2023-09-18T14:28:10;25.05;53.08
75363;DHT22;64122;51.988;5.892;2023-09-18T14:30:40;25.09;52.70
75363;DHT22;64122;51.988;5.892;2023-09-18T14:33:09;25.04;52.00
75363;DHT22;64122;51.988;5.892;2023-09-18T14:35:43;25.03;51.92
75363;DHT22;64122;51.988;5.892;2023-09-18T14:38:12;24.97;51.50
75363;DHT22;64122;51.988;5.892;2023-09-18T14:40:41;24.88;51.57
75363;DHT22;64122;51.988;5.892;2023-09-18T14:43:11;24.85;51.82
75363;DHT22;64122;51.988;5.892;2023-09-18T14:45:40;24.88;52.02
75363;DHT22;64122;51.988;5.892;2023-09-18T14:48:09;24.91;51.11
75363;DHT22;64122;51.988;5.892;2023-09-18T14:50:38;24.95;51.12
75363;DHT22;64122;51.988;5.892;2023-09-18T14:53:10;25.01;51.11
75363;DHT22;64122;51.988;5.892;2023-09-18T14:55:39;25.07;51.45
75363;DHT22;64122;51.988;5.892;2023-09-18T14:58:08;25.10;50.79
75363;DHT22;64122;51.988;5.892;2023-09-18T15:00:37;25.09;50.98
75363;DHT22;64122;51.988;5.892;2023-09-18T15:03:07;25.12;51.17
75363;DHT22;64122;51.988;5.892;2023-09-18T15:05:36;25.06;51.30
75363;DHT22;64122;51.988;5.892;2023-09-18T15:08:05;25.02;51.32
75363;DHT22;64122;51.988;5.892;2023-09-18T15:10:37;24.98;51.49
75363;DHT22;64122;51.988;5.892;2023-09-18T15:13:06;24.88;52.87
75363;DHT22;64122;51.988;5.892;2023-09-18T15:15:35;24.95;51.84
75363;DHT22;64122;51.988;5.892;2023-09-18T15:18:04;24.94;51.62
75363;DHT22;64122;51.988;5.892;2023-09-18T15:20:34;24.89;51.63
75363;DHT22;64122;51.988;5.892;2023-09-18T15:23:05;24.84;51.21
75363;DHT22;64122;51.988;5.892;2023-09-18T15:25:38;24.75;50.69
75363;DHT22;64122;51.988;5.892;2023-09-18T15:28:08;24.72;50.58
75363;DHT22;64122;51.988;5.892;2023-09-18T15:30:37;24.70;50.37
75363;DHT22;64122;51.988;5.892;2023-09-18T15:33:06;24.65;50.46
75363;DHT22;64122;51.988;5.892;2023-09-18T15:35:36;24.60;50.72
75363;DHT22;64122;51.988;5.892;2023-09-18T15:38:05;24.47;49.04
75363;DHT22;64122;51.988;5.892;2023-09-18T15:40:38;23.90;54.81
75363;DHT22;64122;51.988;5.892;2023-09-18T15:43:07;22.69;59.37
75363;DHT22;64122;51.988;5.892;2023-09-18T15:45:36;21.72;62.63
75363;DHT22;64122;51.988;5.892;2023-09-18T15:48:08;20.98;64.36
75363;DHT22;64122;51.988;5.892;2023-09-18T15:50:37;20.50;65.56
75363;DHT22;64122;51.988;5.892;2023-09-18T15:53:08;20.10;67.14